Time;durP1;ratioP1;P1;durP2;ratioP2;P2;SDS_P1;SDS_P2;PMS_P1;PMS_P2;Temp;Humidity;BMP_temperature;BMP_pressure;BME280_temperature;BME280_humidity;BME280_pressure;Samples;Min_cycle;Max_cycle;Signal;HPM_P1;HPM_P2
2023/07/17 00:01:33;;;;;;;1.70;0.87;;;20.00;70.60;;;;;;4973390;28;20070;-19
2023/07/17 00:03:59;;;;;;;3.08;1.20;;;20.00;70.70;;;;;;4958874;28;20023;-19
2023/07/17 00:06:28;;;;;;;1.27;0.90;;;19.90;70.70;;;;;;4960725;28;20027;-19
2023/07/17 00:08:53;;;;;;;2.10;0.93;;;19.90;70.90;;;;;;4952895;28;20061;-19
2023/07/17 00:11:19;;;;;;;2.03;1.00;;;19.90;70.70;;;;;;4975174;28;20113;-20
2023/07/17 00:13:45;;;;;;;3.33;1.20;;;19.90;70.80;;;;;;4981220;28;20027;-19
2023/07/17 00:16:10;;;;;;;2.40;1.10;;;19.90;70.70;;;;;;4965540;28;20424;-19
2023/07/17 00:18:37;;;;;;;1.90;1.10;;;19.80;70.80;;;;;;4957485;28;20144;-19
2023/07/17 00:21:03;;;;;;;1.73;0.98;;;19.80;70.80;;;;;;4958371;28;20023;-19
2023/07/17 00:23:29;;;;;;;2.50;0.85;;;19.80;70.80;;;;;;4965200;28;20252;-19
2023/07/17 00:25:54;;;;;;;2.47;1.00;;;19.70;70.80;;;;;;4934491;28;20563;-19
2023/07/17 00:28:20;;;;;;;1.85;0.90;;;19.70;70.80;;;;;;4965797;28;20083;-19
2023/07/17 00:30:46;;;;;;;3.80;1.10;;;19.70;70.90;;;;;;4959088;28;20026;-19
2023/07/17 00:33:11;;;;;;;2.08;0.90;;;19.60;70.90;;;;;;4958867;28;20045;-20
2023/07/17 00:35:37;;;;;;;2.37;1.10;;;19.50;70.90;;;;;;4958050;28;20763;-19
2023/07/17 00:38:04;;;;;;;2.63;0.80;;;19.50;71.20;;;;;;4963393;28;20284;-20
2023/07/17 00:40:30;;;;;;;1.65;0.85;;;19.50;71.30;;;;;;4936977;28;20165;-19
2023/07/17 00:43:01;;;;;;;2.45;1.00;;;19.50;71.50;;;;;;4977889;28;20031;-19
2023/07/17 00:45:31;;;;;;;1.75;0.95;;;19.50;71.90;;;;;;4975378;28;20046;-19
2023/07/17 00:47:58;;;;;;;2.05;0.90;;;19.50;71.80;;;;;;4949264;28;20031;-19
2023/07/17 00:50:24;;;;;;;1.67;0.90;;;19.50;71.80;;;;;;4967516;28;20034;-19
2023/07/17 00:52:50;;;;;;;1.70;0.90;;;19.50;71.80;;;;;;4965943;28;20031;-19
2023/07/17 00:55:16;;;;;;;2.33;1.00;;;19.50;71.90;;;;;;4963647;28;20045;-19
2023/07/17 00:57:42;;;;;;;3.05;1.02;;;19.50;71.90;;;;;;4939057;28;20113;-19
2023/07/17 01:00:11;;;;;;;2.77;0.90;;;19.50;71.90;;;;;;4960410;28;20556;-19
2023/07/17 01:02:41;;;;;;;2.85;1.00;;;19.50;71.90;;;;;;4957949;28;20052;-19
2023/07/17 01:05:10;;;;;;;2.88;0.98;;;19.40;71.90;;;;;;4936641;28;20117;-19
2023/07/17 01:07:39;;;;;;;2.00;1.00;;;19.40;71.90;;;;;;4955364;28;20137;-19
2023/07/17 01:10:06;;;;;;;2.70;1.00;;;19.40;71.80;;;;;;4958769;28;20030;-20
2023/07/17 01:12:34;;;;;;;1.43;0.87;;;19.30;72.60;;;;;;4941077;28;20037;-19
2023/07/17 01:15:00;;;;;;;2.00;1.00;;;19.30;72.10;;;;;;4961206;28;20049;-19
2023/07/17 01:17:26;;;;;;;2.30;0.90;;;19.30;71.90;;;;;;4972405;28;20648;-19
2023/07/17 01:19:52;;;;;;;2.53;0.90;;;19.20;71.90;;;;;;4958620;28;20122;-19
2023/07/17 01:22:26;;;;;;;1.67;0.87;;;19.20;72.10;;;;;;4956587;28;20984;-19
2023/07/17 01:24:52;;;;;;;2.60;0.90;;;19.20;72.50;;;;;;4964540;28;20452;-19
2023/07/17 01:27:18;;;;;;;2.13;0.90;;;19.10;72.20;;;;;;4940235;28;20034;-19
2023/07/17 01:29:44;;;;;;;2.67;0.80;;;19.10;72.30;;;;;;4965942;28;20495;-19
2023/07/17 01:32:09;;;;;;;2.47;0.85;;;19.10;72.30;;;;;;4963889;28;22721;-20
2023/07/17 01:34:38;;;;;;;1.47;0.80;;;19.00;72.40;;;;;;4962516;28;20461;-19
2023/07/17 01:37:05;;;;;;;1.43;1.00;;;19.00;72.50;;;;;;4954883;28;20296;-19
2023/07/17 01:39:31;;;;;;;2.03;1.10;;;19.00;72.60;;;;;;4960290;28;20035;-19
2023/07/17 01:41:57;;;;;;;2.22;0.90;;;18.90;72.50;;;;;;4947974;28;20034;-19
2023/07/17 01:44:27;;;;;;;1.90;1.00;;;18.90;72.70;;;;;;4962352;28;20030;-18
2023/07/17 01:46:57;;;;;;;2.00;0.90;;;18.90;72.80;;;;;;4967386;28;20022;-19
2023/07/17 01:49:23;;;;;;;1.63;0.90;;;18.80;72.70;;;;;;4955998;28;20050;-19
2023/07/17 01:51:51;;;;;;;1.77;0.98;;;18.80;72.80;;;;;;4983656;28;20570;-19
2023/07/17 01:54:17;;;;;;;2.00;0.80;;;18.70;73.00;;;;;;4959646;28;20033;-19
2023/07/17 01:56:43;;;;;;;2.03;1.00;;;18.70;72.90;;;;;;4983377;28;20030;-19
2023/07/17 01:59:09;;;;;;;2.00;0.90;;;18.70;73.00;;;;;;4939119;28;20699;-19
2023/07/17 02:01:34;;;;;;;1.13;0.80;;;18.70;73.00;;;;;;4964834;28;20035;-19
2023/07/17 02:04:00;;;;;;;1.43;0.80;;;18.60;73.00;;;;;;4947150;28;20655;-19
2023/07/17 02:06:26;;;;;;;1.98;1.00;;;18.60;73.10;;;;;;4948721;28;20574;-18
2023/07/17 02:08:52;;;;;;;1.60;0.90;;;18.60;73.20;;;;;;4963565;28;20037;-18
2023/07/17 02:11:19;;;;;;;1.83;0.90;;;18.60;73.30;;;;;;4963865;28;20022;-19
2023/07/17 02:13:44;;;;;;;2.53;0.95;;;18.50;73.40;;;;;;4943328;28;20026;-19
2023/07/17 02:16:10;;;;;;;2.00;0.90;;;18.50;73.40;;;;;;4965309;28;20273;-20
2023/07/17 02:18:36;;;;;;;2.53;0.90;;;18.50;73.50;;;;;;4962319;28;20218;-19
2023/07/17 02:21:01;;;;;;;3.28;1.25;;;18.50;73.50;;;;;;4964196;28;20038;-20
2023/07/17 02:23:27;;;;;;;3.97;0.93;;;18.40;73.60;;;;;;4956196;28;20493;-19
2023/07/17 02:25:53;;;;;;;1.92;0.90;;;18.40;73.70;;;;;;4963087;28;20023;-19
2023/07/17 02:28:18;;;;;;;3.57;1.00;;;18.40;73.60;;;;;;4939743;28;20232;-19
2023/07/17 02:30:44;;;;;;;2.53;1.00;;;18.40;73.70;;;;;;4967735;28;20350;-19
2023/07/17 02:33:10;;;;;;;2.23;1.00;;;18.30;73.80;;;;;;4965490;28;20445;-20
2023/07/17 02:35:36;;;;;;;3.67;1.30;;;18.30;73.90;;;;;;4959047;28;20022;-19
2023/07/17 02:38:01;;;;;;;1.90;1.00;;;18.30;74.00;;;;;;4980379;28;20042;-19
2023/07/17 02:40:27;;;;;;;2.60;0.93;;;18.20;74.00;;;;;;4954452;28;20030;-19
2023/07/17 02:42:53;;;;;;;2.60;1.20;;;18.30;74.20;;;;;;4948873;28;20097;-19
2023/07/17 02:45:19;;;;;;;1.37;0.90;;;18.20;74.20;;;;;;4934802;28;20929;-19
2023/07/17 02:47:44;;;;;;;1.90;1.00;;;18.30;74.40;;;;;;4966288;28;20469;-19
2023/07/17 02:50:10;;;;;;;2.70;0.90;;;18.20;74.40;;;;;;4940934;28;20033;-19
2023/07/17 02:52:36;;;;;;;1.80;0.90;;;18.20;74.40;;;;;;4964737;28;20278;-19
2023/07/17 02:55:06;;;;;;;2.23;0.90;;;18.20;74.40;;;;;;4962261;28;20536;-19
2023/07/17 02:57:36;;;;;;;1.20;0.80;;;18.20;74.50;;;;;;4960170;28;20315;-19
2023/07/17 03:00:12;;;;;;;3.35;1.08;;;18.20;74.60;;;;;;4940186;28;20048;-19
2023/07/17 03:02:42;;;;;;;4.03;1.00;;;18.10;74.70;;;;;;4948830;28;20057;-19
2023/07/17 03:05:08;;;;;;;1.87;1.00;;;18.10;74.50;;;;;;4948702;28;20047;-19
2023/07/17 03:07:36;;;;;;;3.10;0.90;;;18.10;74.50;;;;;;4959433;28;20238;-18
2023/07/17 03:10:04;;;;;;;1.63;0.80;;;18.10;74.70;;;;;;4962362;28;20046;-20
2023/07/17 03:12:30;;;;;;;3.25;0.85;;;18.00;74.70;;;;;;4959022;28;20238;-19
2023/07/17 03:14:57;;;;;;;2.73;1.10;;;18.00;74.70;;;;;;4963451;28;20476;-19
2023/07/17 03:17:23;;;;;;;2.42;1.00;;;17.90;74.70;;;;;;4937205;28;20223;-19
2023/07/17 03:19:50;;;;;;;1.58;0.85;;;18.00;74.90;;;;;;4972762;28;20484;-18
2023/07/17 03:22:17;;;;;;;1.40;0.90;;;17.90;74.80;;;;;;4957425;28;20331;-19
2023/07/17 03:24:43;;;;;;;2.23;0.90;;;17.90;74.90;;;;;;4962869;28;20090;-19
2023/07/17 03:27:09;;;;;;;2.72;0.75;;;17.90;75.00;;;;;;4958924;28;20045;-20
2023/07/17 03:29:35;;;;;;;2.42;1.00;;;17.80;75.00;;;;;;4962652;28;20675;-19
2023/07/17 03:32:01;;;;;;;1.40;0.80;;;17.80;75.00;;;;;;4945694;28;20030;-19
2023/07/17 03:34:27;;;;;;;3.15;1.00;;;17.80;75.10;;;;;;4959913;28;20018;-19
2023/07/17 03:36:53;;;;;;;1.70;1.00;;;17.80;75.10;;;;;;4959957;28;20046;-18
2023/07/17 03:39:19;;;;;;;1.60;0.93;;;17.70;75.20;;;;;;4961945;28;20256;-19
2023/07/17 03:41:45;;;;;;;2.07;1.00;;;17.70;75.20;;;;;;4967351;28;20019;-18
2023/07/17 03:44:12;;;;;;;1.83;1.00;;;17.70;75.30;;;;;;4957192;28;20038;-19
2023/07/17 03:46:38;;;;;;;2.47;0.90;;;17.70;75.50;;;;;;4922308;28;20095;-18
2023/07/17 03:49:04;;;;;;;1.60;0.93;;;17.60;75.50;;;;;;4963043;28;20034;-19
2023/07/17 03:51:30;;;;;;;1.85;1.00;;;17.60;75.60;;;;;;4956116;28;22492;-19
2023/07/17 03:53:55;;;;;;;2.28;0.98;;;17.60;75.60;;;;;;4953527;28;20589;-18
2023/07/17 03:56:21;;;;;;;2.13;0.93;;;17.60;75.70;;;;;;4975946;28;20042;-19
2023/07/17 03:58:47;;;;;;;1.65;0.90;;;17.50;75.80;;;;;;4957772;28;20030;-19
2023/07/17 04:01:13;;;;;;;2.55;0.90;;;17.60;75.90;;;;;;4957956;28;20078;-19
2023/07/17 04:03:39;;;;;;;1.83;1.00;;;17.60;76.00;;;;;;4926698;28;20039;-18
2023/07/17 04:06:05;;;;;;;1.63;0.90;;;17.50;76.10;;;;;;4963138;28;20445;-20
2023/07/17 04:08:31;;;;;;;1.80;0.80;;;17.50;76.10;;;;;;4960526;28;20477;-19
2023/07/17 04:10:57;;;;;;;1.67;0.90;;;17.50;76.20;;;;;;4967970;28;20090;-19
2023/07/17 04:13:23;;;;;;;2.33;0.97;;;17.50;76.30;;;;;;4964829;28;20476;-19
2023/07/17 04:15:48;;;;;;;2.90;0.90;;;17.50;76.30;;;;;;4965042;28;20022;-19
2023/07/17 04:18:15;;;;;;;2.20;1.03;;;17.50;76.30;;;;;;4937581;28;20342;-19
2023/07/17 04:20:41;;;;;;;2.25;1.00;;;17.50;76.40;;;;;;4963507;28;20069;-19
2023/07/17 04:23:08;;;;;;;2.35;0.80;;;17.50;76.60;;;;;;4957331;28;20031;-20
2023/07/17 04:25:38;;;;;;;3.38;1.20;;;17.50;76.70;;;;;;4980532;28;20889;-19
2023/07/17 04:28:04;;;;;;;3.70;1.10;;;17.50;76.80;;;;;;4972439;28;20058;-19
2023/07/17 04:30:29;;;;;;;2.28;1.08;;;17.50;76.80;;;;;;4943380;28;20027;-19
2023/07/17 04:32:55;;;;;;;2.80;0.90;;;17.50;77.00;;;;;;4952347;28;20122;-19
2023/07/17 04:35:21;;;;;;;2.57;0.97;;;17.50;76.90;;;;;;4948442;28;20023;-19
2023/07/17 04:37:47;;;;;;;2.25;1.00;;;17.50;76.90;;;;;;4964297;28;20030;-19
2023/07/17 04:40:13;;;;;;;2.00;1.00;;;17.50;76.90;;;;;;4957095;28;20138;-19
2023/07/17 04:42:38;;;;;;;2.25;0.90;;;17.50;77.00;;;;;;4971259;28;20040;-19
2023/07/17 04:45:05;;;;;;;2.53;1.00;;;17.50;77.00;;;;;;4954033;28;20035;-19
2023/07/17 04:47:32;;;;;;;1.80;0.97;;;17.50;77.10;;;;;;4962384;28;20374;-19
2023/07/17 04:49:58;;;;;;;3.10;1.10;;;17.50;77.20;;;;;;4937791;28;20297;-19
2023/07/17 04:52:24;;;;;;;1.52;0.90;;;17.50;77.20;;;;;;4977901;28;20014;-20
2023/07/17 04:54:50;;;;;;;2.47;1.17;;;17.50;77.30;;;;;;4957347;28;20023;-19
2023/07/17 04:57:15;;;;;;;2.70;1.10;;;17.50;77.40;;;;;;4966601;28;20170;-19
2023/07/17 04:59:41;;;;;;;2.00;1.00;;;17.50;77.40;;;;;;4959108;28;20400;-18
2023/07/17 05:02:07;;;;;;;3.08;1.10;;;17.50;77.40;;;;;;4968455;28;20058;-19
2023/07/17 05:04:33;;;;;;;2.50;1.17;;;17.50;77.60;;;;;;4941603;28;20022;-19
2023/07/17 05:06:58;;;;;;;3.20;1.13;;;17.50;77.70;;;;;;4963949;28;20039;-19
2023/07/17 05:09:24;;;;;;;3.00;1.02;;;17.60;77.80;;;;;;4958895;28;20233;-19
2023/07/17 05:11:50;;;;;;;2.58;1.23;;;17.60;77.90;;;;;;4967412;28;20038;-19
2023/07/17 05:14:16;;;;;;;3.03;1.50;;;17.60;77.90;;;;;;4958554;28;20034;-19
2023/07/17 05:16:42;;;;;;;5.03;1.45;;;17.70;78.10;;;;;;4960171;28;20157;-18
2023/07/17 05:19:08;;;;;;;3.60;1.20;;;17.70;78.00;;;;;;4937842;28;20157;-19
2023/07/17 05:21:33;;;;;;;2.20;1.30;;;17.70;78.80;;;;;;4967750;28;20030;-19
2023/07/17 05:23:59;;;;;;;3.42;1.40;;;17.70;78.10;;;;;;4964065;28;20502;-19
2023/07/17 05:26:25;;;;;;;3.75;1.63;;;17.70;78.10;;;;;;4977176;28;20239;-19
2023/07/17 05:28:51;;;;;;;2.70;1.43;;;17.80;78.10;;;;;;4967487;28;20067;-19
2023/07/17 05:31:17;;;;;;;3.03;1.50;;;17.80;78.30;;;;;;4958651;28;20019;-19
2023/07/17 05:33:43;;;;;;;3.00;1.42;;;17.80;78.20;;;;;;4958200;28;20044;-19
2023/07/17 05:36:09;;;;;;;3.70;1.50;;;17.90;78.30;;;;;;4936207;28;20026;-19
2023/07/17 05:38:34;;;;;;;4.55;1.70;;;17.90;78.30;;;;;;4964805;28;20408;-19
2023/07/17 05:41:02;;;;;;;3.33;1.53;;;17.90;78.30;;;;;;4959639;28;20030;-19
2023/07/17 05:43:30;;;;;;;3.67;1.60;;;18.00;78.40;;;;;;4965887;28;20764;-19
2023/07/17 05:45:56;;;;;;;3.03;1.70;;;18.00;78.50;;;;;;4963649;28;20035;-19
2023/07/17 05:48:22;;;;;;;4.05;1.67;;;18.00;78.40;;;;;;4949672;28;23052;-19
2023/07/17 05:50:48;;;;;;;4.93;1.70;;;18.10;78.50;;;;;;4940210;28;20037;-18
2023/07/17 05:53:14;;;;;;;3.78;1.65;;;18.10;78.60;;;;;;4964470;28;20026;-19
2023/07/17 05:55:39;;;;;;;3.25;1.52;;;18.10;78.50;;;;;;4960906;28;20037;-18
2023/07/17 05:58:05;;;;;;;3.90;1.90;;;18.20;78.60;;;;;;4966893;28;20142;-19
2023/07/17 06:00:30;;;;;;;4.82;1.80;;;18.20;78.60;;;;;;4966048;28;20379;-19
2023/07/17 06:02:56;;;;;;;3.53;1.80;;;18.30;78.70;;;;;;4956794;28;20741;-19
2023/07/17 06:05:22;;;;;;;4.50;2.03;;;18.30;78.80;;;;;;4961010;28;20509;-18
2023/07/17 06:07:47;;;;;;;4.70;2.00;;;18.40;78.70;;;;;;4915997;28;20798;-18
2023/07/17 06:10:13;;;;;;;5.53;2.00;;;18.40;78.70;;;;;;4959070;28;20101;-19
2023/07/17 06:12:40;;;;;;;5.20;2.17;;;18.40;78.70;;;;;;4954905;28;20233;-18
2023/07/17 06:15:06;;;;;;;4.80;2.08;;;18.50;78.90;;;;;;4946446;28;20037;-19
2023/07/17 06:17:32;;;;;;;5.30;1.98;;;18.50;78.90;;;;;;4971396;28;20037;-19
2023/07/17 06:19:58;;;;;;;5.33;2.03;;;18.60;78.90;;;;;;4974645;28;20043;-18
2023/07/17 06:22:24;;;;;;;4.63;2.13;;;18.60;78.90;;;;;;4945899;28;20030;-19
2023/07/17 06:24:50;;;;;;;4.77;2.07;;;18.70;78.80;;;;;;4970577;28;20046;-19
2023/07/17 06:27:16;;;;;;;5.65;2.30;;;18.70;78.70;;;;;;4964240;28;20034;-19
2023/07/17 06:29:41;;;;;;;4.57;2.22;;;18.80;78.60;;;;;;4963887;28;20630;-19
2023/07/17 06:32:08;;;;;;;6.23;2.10;;;18.80;78.50;;;;;;4964231;28;20114;-19
2023/07/17 06:34:34;;;;;;;4.32;2.03;;;18.80;78.40;;;;;;4954796;28;20660;-19
2023/07/17 06:37:01;;;;;;;5.82;2.25;;;18.80;78.40;;;;;;4939778;28;20046;-19
2023/07/17 06:39:26;;;;;;;4.93;2.17;;;18.90;78.40;;;;;;4970105;28;20026;-20
2023/07/17 06:41:53;;;;;;;5.20;2.20;;;18.90;78.40;;;;;;4959962;28;20030;-19
2023/07/17 06:44:18;;;;;;;5.03;1.95;;;19.00;78.50;;;;;;4959315;28;20035;-19
2023/07/17 06:46:44;;;;;;;5.70;2.40;;;19.00;78.50;;;;;;4954951;28;20037;-19
2023/07/17 06:49:10;;;;;;;4.90;1.90;;;19.10;78.50;;;;;;4959745;28;20023;-19
2023/07/17 06:51:35;;;;;;;4.70;2.33;;;19.20;78.60;;;;;;4963369;28;20287;-19
2023/07/17 06:54:01;;;;;;;5.18;2.05;;;19.20;78.50;;;;;;4958809;28;20041;-19
2023/07/17 06:56:27;;;;;;;4.70;2.40;;;19.30;78.30;;;;;;4958378;28;20252;-20
2023/07/17 06:58:53;;;;;;;6.10;2.17;;;19.30;78.30;;;;;;4965937;28;20243;-19
2023/07/17 07:01:19;;;;;;;7.28;2.40;;;19.40;78.20;;;;;;4954732;28;20496;-20
2023/07/17 07:03:45;;;;;;;8.07;2.73;;;19.40;78.20;;;;;;4943603;28;20246;-19
2023/07/17 07:06:10;;;;;;;5.20;2.20;;;19.50;78.20;;;;;;4967074;28;20066;-19
2023/07/17 07:08:36;;;;;;;4.63;2.30;;;19.60;78.20;;;;;;4935935;28;20200;-19
2023/07/17 07:11:02;;;;;;;7.03;2.70;;;19.60;78.10;;;;;;4953979;28;20039;-18
2023/07/17 07:13:29;;;;;;;5.60;2.40;;;19.70;78.10;;;;;;4958640;28;20730;-19
2023/07/17 07:15:55;;;;;;;5.60;2.17;;;19.70;78.10;;;;;;4958682;28;20037;-19
2023/07/17 07:18:21;;;;;;;5.00;2.70;;;19.80;78.10;;;;;;4954788;28;20031;-20
2023/07/17 07:20:49;;;;;;;6.50;2.47;;;19.90;78.00;;;;;;4956891;28;20417;-20
2023/07/17 07:23:15;;;;;;;4.75;2.40;;;19.90;77.90;;;;;;4967304;28;20436;-20
2023/07/17 07:25:41;;;;;;;5.32;2.60;;;20.00;77.70;;;;;;4945938;28;20046;-19
2023/07/17 07:28:07;;;;;;;6.40;2.50;;;20.10;77.60;;;;;;4959285;28;20035;-19
2023/07/17 07:30:33;;;;;;;5.85;2.53;;;20.10;77.40;;;;;;4963073;28;20035;-19
2023/07/17 07:32:59;;;;;;;4.57;2.30;;;20.10;77.20;;;;;;4959628;28;20031;-19
2023/07/17 07:35:25;;;;;;;4.77;2.40;;;20.20;77.40;;;;;;4959422;28;20273;-20
2023/07/17 07:37:50;;;;;;;5.63;2.35;;;20.30;77.60;;;;;;4960414;28;20647;-19
2023/07/17 07:40:16;;;;;;;4.77;2.40;;;20.30;77.60;;;;;;4962287;28;20489;-19
2023/07/17 07:42:43;;;;;;;5.30;2.22;;;20.40;77.90;;;;;;4939390;28;20101;-18
2023/07/17 07:45:10;;;;;;;6.82;2.65;;;20.60;78.10;;;;;;4967471;28;20658;-19
2023/07/17 07:47:36;;;;;;;4.18;2.33;;;20.70;77.90;;;;;;4958083;28;20636;-18
2023/07/17 07:50:02;;;;;;;6.03;2.70;;;20.80;78.00;;;;;;4964977;28;20069;-19
2023/07/17 07:52:28;;;;;;;5.97;2.60;;;20.90;77.50;;;;;;4966010;28;20018;-20
2023/07/17 07:54:53;;;;;;;4.88;2.58;;;21.00;77.30;;;;;;4967274;28;20389;-20
2023/07/17 07:57:19;;;;;;;5.80;2.80;;;21.10;77.20;;;;;;4933983;28;20058;-20
2023/07/17 07:59:45;;;;;;;5.50;2.65;;;21.30;77.10;;;;;;4964471;28;20190;-19
2023/07/17 08:02:12;;;;;;;4.57;2.80;;;21.40;77.60;;;;;;4947749;28;20160;-19
2023/07/17 08:04:38;;;;;;;4.70;2.20;;;21.50;77.60;;;;;;4943905;28;20037;-20
2023/07/17 08:07:04;;;;;;;4.82;2.25;;;21.70;77.60;;;;;;4956567;28;20326;-19
2023/07/17 08:09:30;;;;;;;5.22;2.40;;;21.90;78.10;;;;;;4965096;28;20029;-19
2023/07/17 08:11:55;;;;;;;3.93;2.20;;;22.20;77.90;;;;;;4931694;28;20943;-19
2023/07/17 08:14:21;;;;;;;5.45;2.53;;;22.40;77.90;;;;;;4965267;28;20146;-19
2023/07/17 08:16:48;;;;;;;4.50;2.40;;;22.70;78.30;;;;;;4978447;28;20081;-20
2023/07/17 08:19:15;;;;;;;4.00;2.30;;;23.00;78.30;;;;;;4956100;28;20235;-19
2023/07/17 08:21:42;;;;;;;4.95;2.50;;;23.40;78.50;;;;;;4952929;28;20027;-19
2023/07/17 08:24:08;;;;;;;5.03;2.50;;;23.70;77.70;;;;;;4963728;28;20460;-20
2023/07/17 08:26:34;;;;;;;4.85;2.42;;;24.00;77.00;;;;;;4941979;28;20031;-19
2023/07/17 08:29:03;;;;;;;4.13;2.33;;;24.30;77.00;;;;;;4968814;28;20105;-19
2023/07/17 08:31:31;;;;;;;5.10;2.42;;;24.60;77.00;;;;;;4968110;28;20038;-19
2023/07/17 08:33:57;;;;;;;4.00;2.33;;;24.80;75.30;;;;;;4953070;28;20514;-19
2023/07/17 08:36:23;;;;;;;4.43;2.50;;;25.00;75.00;;;;;;4951148;28;20536;-19
2023/07/17 08:38:49;;;;;;;4.10;2.40;;;25.20;74.90;;;;;;4963036;28;20034;-19
2023/07/17 08:41:15;;;;;;;4.45;2.70;;;25.50;75.20;;;;;;4939724;28;20022;-20
2023/07/17 08:43:41;;;;;;;4.67;2.50;;;25.70;73.80;;;;;;4957799;28;20034;-20
2023/07/17 08:46:08;;;;;;;4.32;2.50;;;25.90;73.00;;;;;;4962948;28;20031;-19
2023/07/17 08:48:34;;;;;;;4.88;2.63;;;26.00;71.90;;;;;;4957764;28;20248;-19
2023/07/17 08:51:02;;;;;;;3.88;2.60;;;26.20;72.50;;;;;;4951869;28;20484;-20
2023/07/17 08:53:28;;;;;;;4.57;2.23;;;26.40;72.00;;;;;;4967599;28;20684;-19
2023/07/17 08:55:55;;;;;;;4.55;2.60;;;26.60;71.80;;;;;;4964651;28;20031;-19
2023/07/17 08:58:23;;;;;;;4.50;2.65;;;26.80;70.10;;;;;;4928879;28;20038;-19
2023/07/17 09:00:52;;;;;;;5.20;2.50;;;26.80;68.00;;;;;;4960992;28;20342;-19
2023/07/17 09:03:18;;;;;;;4.82;2.70;;;26.70;67.00;;;;;;4978615;28;20038;-19
2023/07/17 09:05:44;;;;;;;5.63;2.60;;;26.50;66.00;;;;;;4959399;28;20041;-19
2023/07/17 09:08:12;;;;;;;5.07;2.28;;;26.30;66.40;;;;;;4961076;28;20038;-19
2023/07/17 09:10:39;;;;;;;4.25;2.30;;;26.30;66.90;;;;;;4965031;28;20041;-19
2023/07/17 09:13:05;;;;;;;4.47;2.50;;;26.20;68.80;;;;;;4943398;28;20049;-20
2023/07/17 09:15:32;;;;;;;3.78;2.30;;;26.50;70.60;;;;;;4959552;28;21150;-20
2023/07/17 09:17:58;;;;;;;3.33;2.20;;;26.80;70.30;;;;;;4969336;28;20043;-20
2023/07/17 09:20:25;;;;;;;3.67;2.40;;;27.00;69.20;;;;;;4971115;28;20830;-20
2023/07/17 09:23:03;;;;;;;4.07;2.40;;;27.30;67.90;;;;;;4951310;28;21021;-19
2023/07/17 09:25:30;;;;;;;3.00;2.10;;;27.30;65.40;;;;;;4963092;28;20035;-20
2023/07/17 09:27:57;;;;;;;3.38;2.10;;;27.30;65.50;;;;;;4962599;28;20580;-19
2023/07/17 09:30:25;;;;;;;4.70;2.40;;;27.30;65.20;;;;;;4939942;28;20023;-20
2023/07/17 09:32:51;;;;;;;3.08;1.90;;;27.30;64.80;;;;;;4977308;28;20039;-20
2023/07/17 09:35:23;;;;;;;4.70;2.35;;;27.30;66.30;;;;;;4958585;28;20053;-19
2023/07/17 09:37:49;;;;;;;3.95;2.30;;;27.50;66.90;;;;;;4958028;28;20049;-20
2023/07/17 09:40:19;;;;;;;4.20;2.50;;;27.80;67.90;;;;;;4964539;28;20038;-19
2023/07/17 09:42:52;;;;;;;3.40;2.33;;;28.10;66.60;;;;;;4977167;28;20038;-19
2023/07/17 09:45:19;;;;;;;3.75;2.38;;;28.40;65.50;;;;;;4941090;28;20050;-19
2023/07/17 09:47:49;;;;;;;3.38;2.40;;;28.70;66.50;;;;;;4965208;28;20093;-20
2023/07/17 09:50:15;;;;;;;4.68;2.30;;;28.90;64.50;;;;;;4961128;28;20118;-20
2023/07/17 09:52:45;;;;;;;4.10;2.20;;;29.10;64.30;;;;;;4952880;28;20308;-20
2023/07/17 09:55:11;;;;;;;3.03;2.00;;;29.10;62.20;;;;;;4968787;28;20531;-20
2023/07/17 09:57:42;;;;;;;4.72;2.60;;;29.20;62.60;;;;;;4965106;28;20125;-20
2023/07/17 10:00:19;;;;;;;4.45;2.22;;;29.00;59.00;;;;;;4943158;28;20060;-19
2023/07/17 10:03:20;;;;;;;4.40;2.25;;;28.90;59.60;;;;;;4965085;28;20306;-19
2023/07/17 10:05:48;;;;;;;3.90;2.28;;;28.80;59.20;;;;;;4958969;28;20674;-19
2023/07/17 10:08:16;;;;;;;3.73;2.00;;;28.90;62.30;;;;;;4959634;28;20061;-20
2023/07/17 10:10:42;;;;;;;3.53;1.92;;;28.90;60.10;;;;;;4964118;28;20105;-19
2023/07/17 10:13:08;;;;;;;3.63;2.17;;;28.90;59.40;;;;;;4941560;28;20489;-19
2023/07/17 10:15:35;;;;;;;3.30;2.03;;;28.80;58.30;;;;;;4948218;28;20117;-20
2023/07/17 10:18:00;;;;;;;3.57;1.90;;;28.50;57.60;;;;;;4963360;28;20026;-19
2023/07/17 10:20:29;;;;;;;3.53;2.08;;;28.20;57.30;;;;;;4964024;28;20386;-20
2023/07/17 10:22:55;;;;;;;3.30;2.00;;;28.00;56.80;;;;;;4963684;28;20260;-19
2023/07/17 10:25:21;;;;;;;3.83;2.00;;;27.70;57.40;;;;;;4956274;28;20066;-20
2023/07/17 10:27:58;;;;;;;3.38;1.92;;;27.50;57.50;;;;;;4960054;28;20357;-19
2023/07/17 10:30:37;;;;;;;2.80;1.83;;;27.30;56.80;;;;;;4982584;28;20049;-20
2023/07/17 10:33:08;;;;;;;4.32;1.90;;;27.00;56.30;;;;;;4958339;28;20034;-19
2023/07/17 10:35:47;;;;;;;4.38;2.20;;;26.90;57.70;;;;;;4960771;28;20036;-20
2023/07/17 10:38:15;;;;;;;3.58;1.90;;;26.70;57.30;;;;;;4965683;28;20477;-19
2023/07/17 10:40:41;;;;;;;3.20;1.80;;;26.60;58.60;;;;;;4953557;28;20118;-19
2023/07/17 10:43:18;;;;;;;2.97;1.80;;;26.60;58.60;;;;;;4965115;28;20033;-19
2023/07/17 10:45:46;;;;;;;2.88;2.00;;;26.50;58.40;;;;;;4961740;28;20307;-20
2023/07/17 10:48:12;;;;;;;5.10;2.20;;;26.70;60.10;;;;;;4944807;28;20300;-20
2023/07/17 10:50:46;;;;;;;4.20;2.22;;;26.80;61.10;;;;;;4945327;28;20230;-20
2023/07/17 10:53:11;;;;;;;3.13;1.90;;;27.10;61.70;;;;;;4956394;28;20572;-19
2023/07/17 10:55:37;;;;;;;3.57;2.00;;;27.50;62.10;;;;;;4954739;28;20033;-20
2023/07/17 10:58:03;;;;;;;3.78;1.88;;;27.80;60.80;;;;;;4969857;28;20037;-20
2023/07/17 11:00:31;;;;;;;4.17;2.00;;;27.90;59.20;;;;;;4966812;28;20566;-20
2023/07/17 11:02:58;;;;;;;3.43;2.10;;;28.00;58.20;;;;;;4956841;28;20802;-20
2023/07/17 11:05:24;;;;;;;4.28;2.10;;;28.00;58.00;;;;;;4966560;28;20421;-20
2023/07/17 11:07:50;;;;;;;4.05;2.28;;;27.90;57.90;;;;;;4932498;28;20284;-20
2023/07/17 11:10:16;;;;;;;3.20;1.92;;;27.90;58.10;;;;;;4954399;28;20038;-20
2023/07/17 11:12:42;;;;;;;2.53;1.90;;;27.90;57.70;;;;;;4954638;28;20022;-20
2023/07/17 11:15:18;;;;;;;3.05;1.80;;;27.90;57.50;;;;;;4966933;28;20020;-20
2023/07/17 11:17:47;;;;;;;3.72;2.00;;;27.80;56.60;;;;;;4946657;28;20706;-20
2023/07/17 11:20:13;;;;;;;3.45;1.90;;;27.70;56.60;;;;;;4967099;28;20077;-20
2023/07/17 11:22:42;;;;;;;3.47;1.90;;;27.50;56.80;;;;;;4954049;28;20282;-19
2023/07/17 11:25:10;;;;;;;3.88;2.20;;;27.50;58.30;;;;;;4966737;28;20054;-20
2023/07/17 11:27:37;;;;;;;4.03;1.92;;;27.70;60.20;;;;;;4968306;28;20045;-20
2023/07/17 11:30:26;;;;;;;4.28;2.13;;;28.00;61.60;;;;;;4963068;28;20060;-19
2023/07/17 11:32:57;;;;;;;3.23;2.00;;;28.50;60.80;;;;;;4938131;28;20081;-20
2023/07/17 11:35:44;;;;;;;3.72;1.80;;;29.10;61.60;;;;;;4979658;28;20559;-20
2023/07/17 11:38:18;;;;;;;3.00;2.03;;;29.50;61.40;;;;;;4966280;28;20026;-19
2023/07/17 11:40:53;;;;;;;3.35;1.83;;;29.80;58.30;;;;;;4952756;28;20320;-20
2023/07/17 11:43:31;;;;;;;3.42;2.10;;;30.00;57.20;;;;;;4956310;28;20108;-20
2023/07/17 11:46:02;;;;;;;3.80;1.93;;;30.20;56.90;;;;;;4968052;28;20029;-20
2023/07/17 11:48:43;;;;;;;3.00;1.98;;;30.30;56.80;;;;;;4953151;28;20278;-20
2023/07/17 11:51:09;;;;;;;3.13;2.00;;;30.30;54.60;;;;;;4965433;28;20039;-19
2023/07/17 11:53:36;;;;;;;2.70;1.75;;;30.10;54.90;;;;;;4965961;28;20178;-20
2023/07/17 11:56:02;;;;;;;2.75;1.58;;;29.80;54.40;;;;;;4970950;28;20533;-19
2023/07/17 11:58:30;;;;;;;3.50;1.70;;;29.40;54.20;;;;;;4951601;28;20060;-19
2023/07/17 12:00:57;;;;;;;3.00;1.50;;;28.90;53.40;;;;;;4981279;28;20198;-19
2023/07/17 12:03:23;;;;;;;3.72;1.50;;;28.30;53.30;;;;;;4957449;28;20542;-19
2023/07/17 12:05:49;;;;;;;4.05;1.40;;;27.60;53.90;;;;;;4934189;28;20038;-18
2023/07/17 12:08:15;;;;;;;3.43;1.57;;;26.90;56.20;;;;;;4963143;28;20034;-18
2023/07/17 12:10:41;;;;;;;2.88;1.48;;;26.50;59.00;;;;;;4954766;28;20654;-18
2023/07/17 12:13:07;;;;;;;2.97;1.60;;;26.20;61.60;;;;;;4970543;28;20034;-18
2023/07/17 12:15:35;;;;;;;3.38;1.50;;;26.10;63.60;;;;;;4973672;28;20118;-18
2023/07/17 12:18:01;;;;;;;2.40;1.50;;;26.10;65.20;;;;;;4955133;28;20034;-18
2023/07/17 12:20:29;;;;;;;3.60;1.50;;;26.20;67.40;;;;;;4925591;28;20035;-18
2023/07/17 12:22:59;;;;;;;2.78;1.40;;;26.40;69.00;;;;;;4980743;28;20566;-18
2023/07/17 12:25:24;;;;;;;2.10;1.40;;;26.70;70.40;;;;;;4961682;28;20026;-18
2023/07/17 12:27:50;;;;;;;2.38;1.58;;;27.10;70.80;;;;;;4952351;28;20260;-19
2023/07/17 12:30:22;;;;;;;2.70;1.63;;;27.40;71.10;;;;;;4963717;28;20037;-18
2023/07/17 12:32:50;;;;;;;2.80;1.80;;;27.70;71.00;;;;;;4965928;28;20249;-18
2023/07/17 12:35:15;;;;;;;2.67;1.70;;;27.90;71.70;;;;;;4947224;28;20037;-18
2023/07/17 12:37:41;;;;;;;3.93;2.00;;;28.10;71.90;;;;;;4959361;28;20817;-19
2023/07/17 12:40:07;;;;;;;3.40;1.70;;;28.40;72.00;;;;;;4956916;28;20469;-19
2023/07/17 12:42:33;;;;;;;2.75;1.83;;;28.60;72.10;;;;;;4953641;28;20390;-19
2023/07/17 12:44:58;;;;;;;2.80;1.80;;;28.80;71.90;;;;;;4962727;28;20034;-19
2023/07/17 12:47:24;;;;;;;3.20;2.00;;;29.00;72.00;;;;;;4966019;28;20040;-19